Time;durP1;ratioP1;P1;durP2;ratioP2;P2;SDS_P1;SDS_P2;PMS_P1;PMS_P2;Temp;Humidity;BMP_temperature;BMP_pressure;BME280_temperature;BME280_humidity;BME280_pressure;Samples;Min_cycle;Max_cycle;Signal;HPM_P1;HPM_P2
2022/09/04 00:01:15;;;;;;;26.23;14.55;;;14.40;99.90;;;;;;4991928;28;20018;-75
2022/09/04 00:03:53;;;;;;;24.00;15.35;;;14.40;99.90;;;;;;4992643;28;20058;-75
2022/09/04 00:06:25;;;;;;;27.20;16.60;;;14.40;99.90;;;;;;4992316;28;20072;-75
2022/09/04 00:09:10;;;;;;;;;;;14.40;99.90;;;;;;4991825;28;20030;-75
2022/09/04 00:11:43;;;;;;;24.83;14.95;;;14.40;99.90;;;;;;4987014;28;19918;-75
2022/09/04 00:14:37;;;;;;;35.50;17.90;;;14.50;99.90;;;;;;4986417;28;20076;-75
2022/09/04 00:17:27;;;;;;;25.90;14.70;;;14.50;99.90;;;;;;5003033;28;20364;-75
2022/09/04 00:20:00;;;;;;;28.27;16.92;;;14.60;99.90;;;;;;4992555;28;20035;-75
2022/09/04 00:22:48;;;;;;;28.35;16.92;;;14.60;99.90;;;;;;4992505;28;20418;-76
2022/09/04 00:25:24;;;;;;;27.10;16.30;;;14.70;99.90;;;;;;4988343;28;20076;-76
2022/09/04 00:27:58;;;;;;;28.80;16.95;;;14.70;99.90;;;;;;4992685;28;20956;-75
2022/09/04 00:30:23;;;;;;;30.25;16.50;;;14.70;99.90;;;;;;4986028;28;20025;-75
2022/09/04 00:33:08;;;;;;;32.70;17.65;;;14.70;99.90;;;;;;4992138;28;20035;-75
2022/09/04 00:35:42;;;;;;;28.05;15.88;;;14.70;99.90;;;;;;4992291;28;20406;-75
2022/09/04 00:38:18;;;;;;;28.17;15.98;;;14.70;99.90;;;;;;4992315;28;20471;-75
2022/09/04 00:41:13;;;;;;;34.03;18.02;;;14.60;99.90;;;;;;4992592;28;20018;-75
2022/09/04 00:44:01;;;;;;;29.40;17.42;;;14.60;99.90;;;;;;4990428;28;20038;-76
2022/09/04 00:46:29;;;;;;;29.80;17.98;;;14.60;99.90;;;;;;4992462;28;20022;-75
2022/09/04 00:49:10;;;;;;;35.38;18.33;;;14.50;99.90;;;;;;4992011;28;20479;-75
2022/09/04 00:52:30;;;;;;;32.13;16.85;;;14.50;99.90;;;;;;4992052;28;20038;-75
2022/09/04 00:55:14;;;;;;;30.52;15.98;;;14.60;99.90;;;;;;4996661;28;20019;-75
2022/09/04 00:57:49;;;;;;;30.77;18.77;;;14.50;99.90;;;;;;4992376;28;20061;-75
2022/09/04 01:00:18;;;;;;;30.67;16.65;;;14.60;99.90;;;;;;4991784;28;20374;-75
2022/09/04 01:03:13;;;;;;;29.85;17.45;;;14.60;99.90;;;;;;4991218;28;20494;-75
2022/09/04 01:06:09;;;;;;;29.45;16.48;;;14.70;99.90;;;;;;4991849;28;20636;-75
2022/09/04 01:08:58;;;;;;;28.17;16.88;;;14.80;99.90;;;;;;4986102;28;20022;-75
2022/09/04 01:11:46;;;;;;;39.55;19.50;;;14.90;99.90;;;;;;4986724;28;20030;-75
2022/09/04 01:14:40;;;;;;;34.63;18.15;;;15.10;99.90;;;;;;4986443;28;20018;-75
2022/09/04 01:17:37;;;;;;;31.67;17.58;;;15.10;99.90;;;;;;4988452;28;20038;-75
2022/09/04 01:20:19;;;;;;;32.75;18.38;;;15.00;99.90;;;;;;4992308;28;20510;-75
2022/09/04 01:22:59;;;;;;;35.20;18.33;;;15.00;99.90;;;;;;4989795;28;20048;-75
2022/09/04 01:26:01;;;;;;;29.67;16.90;;;15.10;99.90;;;;;;4991336;28;20053;-75
2022/09/04 01:29:02;;;;;;;27.55;16.65;;;15.10;99.90;;;;;;4984518;28;20022;-75
2022/09/04 01:31:36;;;;;;;28.45;16.42;;;15.20;99.90;;;;;;4985319;28;20018;-76
2022/09/04 01:34:41;;;;;;;32.83;18.30;;;15.20;99.90;;;;;;4986153;28;20018;-75
2022/09/04 01:37:43;;;;;;;33.22;17.92;;;15.30;99.90;;;;;;4997100;28;20125;-75
2022/09/04 01:40:28;;;;;;;35.97;18.38;;;15.30;99.90;;;;;;4991201;28;20493;-75
2022/09/04 01:43:05;;;;;;;33.72;17.88;;;15.30;99.90;;;;;;4991129;28;20026;-75
2022/09/04 01:46:05;;;;;;;30.52;16.25;;;15.40;99.90;;;;;;4990706;28;20471;-75
2022/09/04 01:48:51;;;;;;;33.10;18.40;;;15.40;99.90;;;;;;4996563;28;20049;-75
2022/09/04 01:51:26;;;;;;;33.95;18.80;;;15.40;99.90;;;;;;4985245;28;20092;-76
2022/09/04 01:54:10;;;;;;;34.53;18.25;;;15.50;99.90;;;;;;4991048;28;20026;-75
2022/09/04 01:56:56;;;;;;;30.10;16.42;;;15.60;99.90;;;;;;4989725;28;20037;-75
2022/09/04 01:59:34;;;;;;;29.45;17.00;;;15.70;99.90;;;;;;4983976;28;20025;-76
2022/09/04 02:02:00;;;;;;;28.95;16.42;;;15.70;99.90;;;;;;4990398;28;20022;-75
2022/09/04 02:04:38;;;;;;;32.58;18.23;;;15.70;99.90;;;;;;4990784;28;20699;-75
2022/09/04 02:07:23;;;;;;;34.50;18.80;;;15.80;99.90;;;;;;4990599;28;20030;-75
2022/09/04 02:10:43;;;;;;;42.78;19.08;;;16.00;99.90;;;;;;4990565;28;20070;-75
2022/09/04 02:13:28;;;;;;;38.35;21.48;;;16.10;99.90;;;;;;4977790;28;20030;-75
2022/09/04 02:16:48;;;;;;;41.90;21.38;;;16.30;99.90;;;;;;4984641;28;20069;-75
2022/09/04 02:19:32;;;;;;;34.42;19.45;;;16.30;99.90;;;;;;4988020;28;20545;-76
2022/09/04 02:22:25;;;;;;;45.92;22.50;;;16.40;99.90;;;;;;4991421;28;20057;-76
2022/09/04 02:25:13;;;;;;;40.08;21.27;;;16.40;99.90;;;;;;4984723;28;20038;-75
2022/09/04 02:28:03;;;;;;;41.33;21.35;;;16.50;99.90;;;;;;4991669;28;20487;-75
2022/09/04 02:30:36;;;;;;;41.83;20.17;;;16.60;99.90;;;;;;4985586;28;20030;-75
2022/09/04 02:33:05;;;;;;;44.83;20.27;;;16.70;99.90;;;;;;4991167;28;20033;-76
2022/09/04 02:36:04;;;;;;;39.40;19.70;;;16.70;99.90;;;;;;4990852;28;20041;-75
2022/09/04 02:39:08;;;;;;;38.35;19.70;;;16.90;99.90;;;;;;4984536;28;20029;-76
2022/09/04 02:42:05;;;;;;;39.17;20.33;;;17.00;99.90;;;;;;4987001;28;20018;-75
2022/09/04 02:44:40;;;;;;;42.58;19.83;;;17.00;99.90;;;;;;4990069;28;20018;-75
2022/09/04 02:47:32;;;;;;;36.28;19.17;;;17.10;99.90;;;;;;4990575;28;20034;-76
2022/09/04 02:50:27;;;;;;;36.30;19.35;;;17.10;99.90;;;;;;4990318;28;20029;-75
2022/09/04 02:53:27;;;;;;;42.05;19.23;;;17.20;99.90;;;;;;4990366;28;20479;-76
2022/09/04 02:56:17;;;;;;;41.00;18.02;;;17.10;99.90;;;;;;4986116;28;20471;-75
2022/09/04 02:59:14;;;;;;;35.05;17.90;;;17.20;99.90;;;;;;4986427;28;20026;-76
2022/09/04 03:02:04;;;;;;;36.38;18.08;;;17.20;99.90;;;;;;4991227;28;20035;-75
2022/09/04 03:04:55;;;;;;;35.22;16.67;;;17.20;99.90;;;;;;4990593;28;20470;-76
2022/09/04 03:07:53;;;;;;;33.45;15.48;;;17.10;99.90;;;;;;4990587;28;20018;-75
2022/09/04 03:10:30;;;;;;;28.40;15.02;;;17.10;99.90;;;;;;4993479;28;20126;-75
2022/09/04 03:13:00;;;;;;;30.02;14.68;;;17.10;99.90;;;;;;4982841;28;20066;-75
2022/09/04 03:15:29;;;;;;;28.35;14.85;;;17.10;99.90;;;;;;4990130;28;20023;-75
2022/09/04 03:18:23;;;;;;;28.30;13.90;;;17.00;99.90;;;;;;4990423;28;20026;-75
2022/09/04 03:20:55;;;;;;;26.35;12.65;;;17.00;99.90;;;;;;4990325;28;20038;-76
2022/09/04 03:23:27;;;;;;;23.02;12.13;;;17.10;99.90;;;;;;4990253;28;20026;-75
2022/09/04 03:26:17;;;;;;;19.50;12.00;;;17.00;99.90;;;;;;4992933;28;20026;-76
2022/09/04 03:28:54;;;;;;;19.17;10.50;;;16.90;99.90;;;;;;4993817;28;20367;-75
2022/09/04 03:31:58;;;;;;;15.95;9.63;;;16.90;99.90;;;;;;4993207;28;20023;-75
2022/09/04 03:34:39;;;;;;;24.45;10.77;;;16.80;99.90;;;;;;4993838;28;20026;-76
2022/09/04 03:37:13;;;;;;;21.65;10.13;;;16.80;99.90;;;;;;4993796;28;20027;-76
2022/09/04 03:39:51;;;;;;;17.80;9.27;;;16.80;99.90;;;;;;4992987;28;20438;-75
2022/09/04 03:42:29;;;;;;;13.55;8.80;;;16.80;99.90;;;;;;4993172;28;20023;-76
2022/09/04 03:45:13;;;;;;;18.98;9.65;;;16.70;99.90;;;;;;4993279;28;20509;-75
2022/09/04 03:47:58;;;;;;;17.95;10.55;;;16.70;99.90;;;;;;4988495;28;20029;-75
2022/09/04 03:50:46;;;;;;;17.23;9.75;;;16.70;99.90;;;;;;4988710;28;20438;-75
2022/09/04 03:53:18;;;;;;;15.25;8.55;;;16.70;99.90;;;;;;4993187;28;20026;-75
2022/09/04 03:56:02;;;;;;;17.60;9.45;;;16.60;99.90;;;;;;4993488;28;20061;-75
2022/09/04 03:59:02;;;;;;;16.73;8.43;;;16.60;99.90;;;;;;4987866;28;20026;-74
2022/09/04 04:02:01;;;;;;;14.65;8.75;;;16.50;99.90;;;;;;4989224;28;20022;-74
2022/09/04 04:04:55;;;;;;;17.15;9.57;;;16.50;99.90;;;;;;4993168;28;20092;-75
2022/09/04 04:07:38;;;;;;;15.57;8.00;;;16.50;99.90;;;;;;4993225;28;20094;-75
2022/09/04 04:10:19;;;;;;;15.70;8.70;;;16.50;99.90;;;;;;4992654;28;20023;-75
2022/09/04 04:13:11;;;;;;;14.15;8.30;;;16.50;99.90;;;;;;4992860;28;20498;-75
2022/09/04 04:15:51;;;;;;;16.75;9.15;;;16.40;99.90;;;;;;4990106;28;20015;-75
2022/09/04 04:18:33;;;;;;;18.77;9.55;;;16.40;99.90;;;;;;4992629;28;20387;-75
2022/09/04 04:21:37;;;;;;;14.52;7.85;;;16.50;99.90;;;;;;4993043;28;20360;-75
2022/09/04 04:24:37;;;;;;;12.75;8.05;;;16.50;99.90;;;;;;4988240;28;20068;-75
2022/09/04 04:27:36;;;;;;;11.50;6.80;;;16.50;99.90;;;;;;4990162;28;20129;-75
2022/09/04 04:30:04;;;;;;;13.40;6.55;;;16.50;99.90;;;;;;4991739;28;20022;-74
2022/09/04 04:32:45;;;;;;;8.75;5.95;;;16.50;99.90;;;;;;4991053;28;20546;-75
2022/09/04 04:35:16;;;;;;;11.95;5.50;;;16.50;99.90;;;;;;4992309;28;20026;-75
2022/09/04 04:38:17;;;;;;;7.75;5.07;;;16.50;99.90;;;;;;4992599;28;20057;-74
2022/09/04 04:41:08;;;;;;;9.05;4.60;;;16.50;99.90;;;;;;4990226;28;20026;-74
2022/09/04 04:43:33;;;;;;;7.65;4.55;;;16.40;99.90;;;;;;4993504;28;20726;-75
2022/09/04 04:46:37;;;;;;;4.78;3.35;;;16.30;99.90;;;;;;4992242;28;20027;-75
2022/09/04 04:49:18;;;;;;;6.15;3.38;;;16.30;99.90;;;;;;4991922;28;20471;-75
2022/09/04 04:51:52;;;;;;;6.70;3.63;;;16.30;99.90;;;;;;4991971;28;20045;-75
2022/09/04 04:54:56;;;;;;;6.00;3.20;;;16.30;99.90;;;;;;4991168;28;20254;-75
2022/09/04 04:57:47;;;;;;;6.38;2.97;;;16.30;99.90;;;;;;4985209;28;20019;-74
2022/09/04 05:00:19;;;;;;;9.38;3.20;;;16.30;99.90;;;;;;4985754;28;20026;-75
2022/09/04 05:03:00;;;;;;;6.57;2.75;;;16.20;99.90;;;;;;4991889;28;20422;-74
2022/09/04 05:05:25;;;;;;;11.57;3.17;;;16.20;99.90;;;;;;4992033;28;20019;-75
2022/09/04 05:08:25;;;;;;;7.88;2.88;;;16.20;99.90;;;;;;4992142;28;20027;-75
2022/09/04 05:10:59;;;;;;;4.10;2.30;;;16.10;99.90;;;;;;4991626;28;20386;-75
2022/09/04 05:13:57;;;;;;;3.38;2.20;;;16.10;99.90;;;;;;4991749;28;20032;-75
2022/09/04 05:16:48;;;;;;;6.28;2.10;;;16.20;99.90;;;;;;4991007;28;20474;-75
2022/09/04 05:19:32;;;;;;;8.10;2.30;;;16.20;99.90;;;;;;4985531;28;20047;-75
2022/09/04 05:22:11;;;;;;;10.05;2.10;;;16.30;99.90;;;;;;4986044;28;20033;-74
2022/09/04 05:24:46;;;;;;;5.07;2.05;;;16.30;99.90;;;;;;4991640;28;20095;-74
2022/09/04 05:27:21;;;;;;;4.50;2.05;;;16.30;99.90;;;;;;4991614;28;20025;-75
2022/09/04 05:30:05;;;;;;;6.93;2.38;;;16.40;99.90;;;;;;4991185;28;20022;-75
2022/09/04 05:32:49;;;;;;;5.68;2.47;;;16.30;99.90;;;;;;4991201;28;20038;-75
2022/09/04 05:35:17;;;;;;;6.85;2.13;;;16.40;99.90;;;;;;4991505;28;20085;-74
2022/09/04 05:37:55;;;;;;;5.40;1.80;;;16.60;99.90;;;;;;4990165;28;20023;-74
2022/09/04 05:40:31;;;;;;;5.53;1.42;;;16.60;99.90;;;;;;4991488;28;20015;-75
2022/09/04 05:43:04;;;;;;;4.07;1.92;;;16.70;99.90;;;;;;4991591;28;20374;-75
2022/09/04 05:45:56;;;;;;;7.78;1.73;;;16.80;99.90;;;;;;4991233;28;20073;-75
2022/09/04 05:48:32;;;;;;;4.68;2.05;;;16.80;99.90;;;;;;4985226;28;20045;-75
2022/09/04 05:51:21;;;;;;;10.27;1.70;;;16.90;99.90;;;;;;4984315;28;20025;-75
2022/09/04 05:54:20;;;;;;;6.72;2.08;;;17.00;99.90;;;;;;4985269;28;20121;-74
2022/09/04 05:56:57;;;;;;;3.60;1.75;;;17.00;99.90;;;;;;4994834;28;20052;-74
2022/09/04 05:59:41;;;;;;;3.58;1.50;;;17.00;99.90;;;;;;4991621;28;20022;-74
2022/09/04 06:02:41;;;;;;;3.10;1.52;;;17.20;99.90;;;;;;4986437;28;20053;-75
2022/09/04 06:05:07;;;;;;;10.38;1.85;;;17.40;99.90;;;;;;4983369;28;20034;-75
2022/09/04 06:07:39;;;;;;;4.00;1.67;;;17.50;99.90;;;;;;4990880;28;20247;-75
2022/09/04 06:10:26;;;;;;;3.97;1.58;;;17.60;99.90;;;;;;4991198;28;20138;-74
2022/09/04 06:13:06;;;;;;;6.95;1.90;;;17.80;99.90;;;;;;4984486;28;20123;-75
2022/09/04 06:15:43;;;;;;;7.85;2.80;;;17.90;99.90;;;;;;4986732;28;20015;-75
2022/09/04 06:18:47;;;;;;;7.00;2.78;;;17.90;99.90;;;;;;5005814;28;20018;-75
2022/09/04 06:21:49;;;;;;;3.20;1.27;;;18.00;99.90;;;;;;5013755;23;20038;-75
2022/09/04 06:24:36;;;;;;;5.15;1.30;;;18.20;99.90;;;;;;5008043;28;20026;-75
2022/09/04 06:27:41;;;;;;;4.88;1.50;;;18.30;99.90;;;;;;5010610;28;20105;-75
2022/09/04 06:30:12;;;;;;;3.78;1.50;;;18.40;99.90;;;;;;4989753;28;20022;-75
2022/09/04 06:32:59;;;;;;;2.50;1.20;;;18.40;99.90;;;;;;4972436;28;20484;-75
2022/09/04 06:36:03;;;;;;;6.03;1.55;;;18.60;99.90;;;;;;4972878;28;20380;-75
2022/09/04 06:39:19;;;;;;;4.82;1.60;;;18.70;99.90;;;;;;4936515;29;20056;-75
2022/09/04 06:41:57;;;;;;;6.47;1.58;;;18.80;99.90;;;;;;4948490;28;20019;-75
2022/09/04 06:44:52;;;;;;;8.98;1.48;;;18.80;99.90;;;;;;4949982;29;20412;-75
2022/09/04 06:48:00;;;;;;;6.07;1.30;;;18.90;99.90;;;;;;4972666;28;20555;-75
2022/09/04 06:50:48;;;;;;;2.92;1.10;;;18.90;99.90;;;;;;4972565;28;20019;-75
2022/09/04 06:53:38;;;;;;;5.30;1.63;;;19.00;99.90;;;;;;4972267;28;20062;-75
2022/09/04 06:56:37;;;;;;;13.38;1.65;;;19.10;99.90;;;;;;4972640;28;20026;-75
2022/09/04 06:59:20;;;;;;;4.90;1.55;;;19.10;99.90;;;;;;4971180;28;20023;-74
2022/09/04 07:02:10;;;;;;;2.78;1.20;;;19.20;99.90;;;;;;4976130;28;20025;-75
2022/09/04 07:04:51;;;;;;;4.25;1.20;;;19.30;99.90;;;;;;4975536;28;20038;-74
2022/09/04 07:07:26;;;;;;;4.65;1.27;;;19.40;99.90;;;;;;4982531;28;20023;-75
2022/09/04 07:09:57;;;;;;;8.48;1.77;;;19.50;99.90;;;;;;4976212;28;20114;-75
2022/09/04 07:12:42;;;;;;;5.65;1.40;;;19.60;99.90;;;;;;4975981;28;20043;-75
2022/09/04 07:15:26;;;;;;;5.10;1.35;;;19.60;99.90;;;;;;4977203;28;20050;-75
2022/09/04 07:18:17;;;;;;;4.32;1.50;;;19.70;99.90;;;;;;4975918;28;20085;-75
2022/09/04 07:21:01;;;;;;;4.27;1.33;;;19.70;99.90;;;;;;4993241;23;20054;-75
2022/09/04 07:23:39;;;;;;;2.97;1.00;;;19.80;99.90;;;;;;4977483;28;20038;-75
2022/09/04 07:26:43;;;;;;;2.97;1.25;;;19.90;99.90;;;;;;4975486;28;20034;-74
2022/09/04 07:29:21;;;;;;;9.57;1.60;;;20.00;99.90;;;;;;4978188;28;20027;-75
2022/09/04 07:31:57;;;;;;;3.83;1.40;;;20.10;99.90;;;;;;4975246;28;20032;-76
2022/09/04 07:34:29;;;;;;;4.25;1.95;;;20.20;99.90;;;;;;4975326;28;20069;-73
2022/09/04 07:37:09;;;;;;;4.70;2.20;;;20.30;99.90;;;;;;4975127;28;20034;-74
2022/09/04 07:39:38;;;;;;;3.67;1.63;;;20.30;99.90;;;;;;4975205;28;20014;-74
2022/09/04 07:42:14;;;;;;;6.72;1.35;;;20.40;99.90;;;;;;4975326;28;20030;-74
2022/09/04 07:44:53;;;;;;;9.13;1.73;;;20.40;99.90;;;;;;4975130;28;20061;-74
2022/09/04 07:47:34;;;;;;;5.43;1.73;;;20.50;99.90;;;;;;4980718;28;20101;-74
2022/09/04 07:50:12;;;;;;;7.57;1.45;;;20.60;99.90;;;;;;4975259;28;20499;-74
2022/09/04 07:52:53;;;;;;;7.05;1.20;;;20.60;99.90;;;;;;4981040;28;20480;-74
2022/09/04 07:55:39;;;;;;;7.53;1.13;;;20.70;99.90;;;;;;4975343;28;20472;-74
2022/09/04 07:58:27;;;;;;;5.57;1.80;;;20.70;99.90;;;;;;4975047;28;20066;-74
2022/09/04 08:00:56;;;;;;;4.50;1.10;;;20.70;99.90;;;;;;4974546;28;20015;-74
2022/09/04 08:04:04;;;;;;;8.48;1.60;;;20.90;99.90;;;;;;4974421;28;20030;-74
2022/09/04 08:06:52;;;;;;;4.07;1.60;;;20.90;99.90;;;;;;4957676;28;20035;-74
2022/09/04 08:09:42;;;;;;;8.02;1.45;;;20.90;99.90;;;;;;4974441;28;20023;-74
2022/09/04 08:12:27;;;;;;;3.67;1.55;;;20.90;99.90;;;;;;4973732;28;20027;-74
2022/09/04 08:14:58;;;;;;;6.88;1.23;;;21.00;99.90;;;;;;4976298;28;20054;-74
2022/09/04 08:17:46;;;;;;;6.82;1.30;;;21.10;99.90;;;;;;4974636;28;20027;-74
2022/09/04 08:20:27;;;;;;;3.92;1.52;;;21.10;99.90;;;;;;4974778;28;20030;-74
2022/09/04 08:23:29;;;;;;;13.30;1.70;;;21.10;99.90;;;;;;4974534;28;20504;-74
2022/09/04 08:26:13;;;;;;;5.95;1.30;;;21.20;99.90;;;;;;4974548;28;20039;-74
2022/09/04 08:28:56;;;;;;;3.65;1.13;;;21.20;99.90;;;;;;4974510;28;20042;-74
2022/09/04 08:31:35;;;;;;;5.65;1.30;;;21.40;99.90;;;;;;4974474;28;20111;-75
2022/09/04 08:34:19;;;;;;;7.45;1.50;;;21.30;99.90;;;;;;4977943;28;20100;-74
2022/09/04 08:36:48;;;;;;;5.13;1.52;;;21.20;99.90;;;;;;4988221;28;20025;-74
2022/09/04 08:39:39;;;;;;;5.18;1.73;;;21.30;99.90;;;;;;4989967;28;20022;-73
2022/09/04 08:42:26;;;;;;;4.32;1.38;;;21.40;99.90;;;;;;4983348;28;20034;-73
2022/09/04 08:45:06;;;;;;;5.10;1.40;;;21.50;99.90;;;;;;4975060;28;20030;-74
2022/09/04 08:47:54;;;;;;;4.22;1.02;;;21.60;99.90;;;;;;4972270;28;20027;-74
2022/09/04 08:50:38;;;;;;;4.43;1.40;;;21.90;99.90;;;;;;4976507;28;20149;-74
2022/09/04 08:53:42;;;;;;;3.50;1.40;;;22.10;98.90;;;;;;4979243;28;20062;-74
2022/09/04 08:56:21;;;;;;;3.58;1.30;;;22.30;97.80;;;;;;4976025;28;20085;-74
2022/09/04 08:59:29;;;;;;;4.38;1.20;;;22.40;94.80;;;;;;4973764;28;20030;-74
2022/09/04 09:02:00;;;;;;;6.55;1.40;;;22.50;93.60;;;;;;4973054;28;20037;-74
2022/09/04 09:05:00;;;;;;;5.63;1.00;;;22.60;94.10;;;;;;4972967;28;20035;-74
2022/09/04 09:07:48;;;;;;;4.45;1.30;;;22.40;91.20;;;;;;4978207;28;20557;-74
2022/09/04 09:11:05;;;;;;;6.88;1.00;;;22.40;90.90;;;;;;4981557;28;20030;-74
2022/09/04 09:13:49;;;;;;;5.07;1.42;;;22.30;94.00;;;;;;4982281;28;20101;-74
2022/09/04 09:16:18;;;;;;;3.55;1.30;;;22.30;92.10;;;;;;4973143;28;20019;-75
2022/09/04 09:19:09;;;;;;;3.53;1.00;;;22.20;92.20;;;;;;4973301;28;20105;-74
2022/09/04 09:21:48;;;;;;;13.15;1.42;;;22.20;94.90;;;;;;4973512;28;20033;-74
2022/09/04 09:24:13;;;;;;;8.15;1.40;;;22.40;96.10;;;;;;4973097;28;20046;-74
2022/09/04 09:27:03;;;;;;;8.45;1.42;;;22.30;94.00;;;;;;4973464;28;20502;-74
2022/09/04 09:30:00;;;;;;;3.00;1.75;;;22.30;94.80;;;;;;4971618;28;20475;-74
2022/09/04 09:32:29;;;;;;;8.02;1.33;;;22.40;93.00;;;;;;4973270;28;20030;-75
2022/09/04 09:35:07;;;;;;;7.85;1.48;;;22.40;91.60;;;;;;4973073;28;20086;-75
2022/09/04 09:37:58;;;;;;;3.45;1.38;;;22.40;92.20;;;;;;4972058;28;20077;-76
2022/09/04 09:40:24;;;;;;;6.57;1.15;;;22.50;89.70;;;;;;4973113;28;20089;-76
2022/09/04 09:43:32;;;;;;;7.70;1.42;;;22.50;92.20;;;;;;4973208;28;20027;-76
2022/09/04 09:46:18;;;;;;;6.50;1.33;;;22.60;89.40;;;;;;4964612;28;20573;-75
2022/09/04 09:49:05;;;;;;;7.07;1.38;;;23.00;88.20;;;;;;4972814;28;20101;-75
2022/09/04 09:52:05;;;;;;;5.65;1.50;;;23.30;83.40;;;;;;4972202;28;20062;-75
2022/09/04 09:54:46;;;;;;;4.97;1.60;;;23.50;81.20;;;;;;4979266;28;20484;-75
2022/09/04 09:57:37;;;;;;;3.47;1.17;;;23.90;79.80;;;;;;4972718;28;20518;-75
2022/09/04 10:00:05;;;;;;;2.95;0.95;;;23.90;75.70;;;;;;4972098;28;20026;-76
2022/09/04 10:02:46;;;;;;;3.20;1.15;;;23.60;78.00;;;;;;4972673;28;20019;-75
2022/09/04 10:05:20;;;;;;;5.93;1.20;;;23.90;79.10;;;;;;4972217;28;20023;-75
2022/09/04 10:08:14;;;;;;;6.53;1.33;;;24.60;74.00;;;;;;4971984;28;20058;-75
2022/09/04 10:11:07;;;;;;;7.53;1.27;;;25.30;68.60;;;;;;4972428;28;20027;-76
2022/09/04 10:13:52;;;;;;;3.70;1.13;;;25.40;68.00;;;;;;4972372;28;20117;-75
2022/09/04 10:16:27;;;;;;;3.80;1.25;;;25.50;70.80;;;;;;4971388;28;20023;-76
2022/09/04 10:19:10;;;;;;;8.38;1.75;;;25.20;66.70;;;;;;4972511;28;20495;-75
2022/09/04 10:21:54;;;;;;;6.47;1.17;;;25.00;67.30;;;;;;4972839;28;20052;-76
2022/09/04 10:24:32;;;;;;;8.68;1.60;;;24.70;68.40;;;;;;4971304;28;20052;-76
2022/09/04 10:27:39;;;;;;;4.85;0.88;;;24.90;69.40;;;;;;4972483;28;20106;-75
2022/09/04 10:30:05;;;;;;;5.57;1.40;;;25.10;68.80;;;;;;4971863;28;20034;-75
2022/09/04 10:32:31;;;;;;;3.53;1.42;;;25.60;65.90;;;;;;4972540;28;20066;-77
2022/09/04 10:35:24;;;;;;;4.97;1.00;;;25.90;64.40;;;;;;4975137;28;20030;-76
2022/09/04 10:38:10;;;;;;;5.25;1.05;;;25.80;66.30;;;;;;4976465;28;20026;-75
2022/09/04 10:40:44;;;;;;;7.13;1.33;;;24.90;67.70;;;;;;4976463;28;20023;-75
2022/09/04 10:43:36;;;;;;;7.80;1.15;;;24.70;69.80;;;;;;4976552;28;20023;-74
2022/09/04 10:46:09;;;;;;;5.40;1.52;;;24.70;71.40;;;;;;4976766;28;20026;-75
2022/09/04 10:49:07;;;;;;;8.55;1.58;;;24.70;70.20;;;;;;4976204;28;20561;-74
2022/09/04 10:51:51;;;;;;;4.88;1.23;;;24.60;71.40;;;;;;4974137;28;20122;-76
2022/09/04 10:54:49;;;;;;;4.30;1.10;;;25.00;70.70;;;;;;4975863;28;20037;-76
2022/09/04 10:57:30;;;;;;;13.32;1.40;;;25.30;68.40;;;;;;4975863;28;20027;-76
2022/09/04 11:00:17;;;;;;;4.38;1.40;;;25.60;65.70;;;;;;4975989;28;20019;-76
2022/09/04 11:03:09;;;;;;;5.80;1.50;;;25.30;65.10;;;;;;4976058;28;20387;-77
2022/09/04 11:05:54;;;;;;;4.88;1.15;;;25.30;68.00;;;;;;4975540;28;20019;-79
2022/09/04 11:08:38;;;;;;;7.38;1.50;;;25.20;68.40;;;;;;4975054;28;20023;-77
2022/09/04 11:11:30;;;;;;;5.97;1.17;;;25.50;67.00;;;;;;4975253;28;20040;-81
2022/09/04 11:14:10;;;;;;;;;;;25.50;65.60;;;;;;4976091;28;20479;-81
2022/09/04 11:16:48;;;;;;;5.90;1.17;;;25.60;64.80;;;;;;4975493;28;19998;-79
2022/09/04 11:19:42;;;;;;;5.57;2.20;;;25.50;66.90;;;;;;4975584;28;20019;-80
2022/09/04 11:22:24;;;;;;;4.10;1.45;;;25.40;66.80;;;;;;5006439;23;20043;-74
2022/09/04 11:25:18;;;;;;;3.05;1.20;;;25.50;67.10;;;;;;4974041;28;20038;-74
2022/09/04 11:27:44;;;;;;;3.90;1.38;;;25.50;66.80;;;;;;4973889;28;20015;-74
2022/09/04 11:30:28;;;;;;;5.53;1.05;;;25.30;66.70;;;;;;4974978;28;20038;-74
2022/09/04 11:33:05;;;;;;;8.40;1.45;;;25.50;66.40;;;;;;4955674;28;20063;-75
2022/09/04 11:35:31;;;;;;;7.72;1.30;;;25.50;66.10;;;;;;4957847;28;20110;-74
2022/09/04 11:38:21;;;;;;;7.15;1.17;;;25.70;66.00;;;;;;4959341;28;20106;-74
2022/09/04 11:41:14;;;;;;;6.13;1.42;;;25.90;64.90;;;;;;4955799;28;20049;-77
2022/09/04 11:44:01;;;;;;;5.47;1.35;;;26.00;66.50;;;;;;4955721;28;20376;-74
2022/09/04 11:47:05;;;;;;;7.07;1.55;;;26.60;65.30;;;;;;4954673;28;20426;-75
2022/09/04 11:49:40;;;;;;;4.40;1.33;;;26.80;61.90;;;;;;4955700;28;20114;-74
2022/09/04 11:52:45;;;;;;;5.13;1.63;;;27.40;62.40;;;;;;4960698;28;20027;-74
2022/09/04 11:55:23;;;;;;;4.97;1.10;;;29.00;56.20;;;;;;4962795;28;20031;-74
2022/09/04 11:58:16;;;;;;;7.15;1.10;;;29.50;52.80;;;;;;4955441;28;20019;-75
2022/09/04 12:00:58;;;;;;;8.13;1.17;;;30.40;52.00;;;;;;4955115;28;20031;-74
2022/09/04 12:03:48;;;;;;;5.13;1.27;;;31.10;50.40;;;;;;4955211;28;20023;-74
2022/09/04 12:06:25;;;;;;;4.95;1.02;;;31.60;48.80;;;;;;4962454;28;20057;-75
2022/09/04 12:09:30;;;;;;;5.72;1.08;;;31.70;46.60;;;;;;4955419;28;20380;-74
2022/09/04 12:12:29;;;;;;;7.25;0.93;;;31.00;46.50;;;;;;4955384;28;20031;-74
2022/09/04 12:15:13;;;;;;;5.88;1.42;;;30.00;48.60;;;;;;4956444;28;20027;-75
2022/09/04 12:18:03;;;;;;;6.72;2.22;;;30.40;49.10;;;;;;4954244;28;20023;-74
2022/09/04 12:23:16;;;;;;;6.93;1.33;;;32.00;47.90;;;;;;4977106;28;20598;-77
2022/09/04 12:25:53;;;;;;;9.07;1.52;;;32.20;46.50;;;;;;4974395;28;20117;-79
2022/09/04 12:28:32;;;;;;;7.95;1.10;;;33.90;41.40;;;;;;4973582;28;20384;-78
2022/09/04 12:31:18;;;;;;;3.25;1.35;;;33.50;45.40;;;;;;4973469;28;20113;-85
2022/09/04 12:34:18;;;;;;;5.68;1.40;;;35.60;38.80;;;;;;4973606;28;20046;-80
2022/09/04 12:37:10;;;;;;;6.93;1.20;;;36.40;37.30;;;;;;4973942;28;20023;-79
2022/09/04 12:40:00;;;;;;;3.30;1.40;;;36.50;37.40;;;;;;4981095;28;20022;-78
2022/09/04 12:42:28;;;;;;;3.30;1.00;;;36.40;35.30;;;;;;4972662;28;20026;-80
2022/09/04 12:45:23;;;;;;;3.67;0.88;;;37.90;35.00;;;;;;4973981;28;20106;-81
2022/09/04 12:47:56;;;;;;;5.22;1.10;;;38.70;34.30;;;;;;4974039;28;20022;-81
2022/09/04 12:50:37;;;;;;;4.15;0.77;;;40.00;33.60;;;;;;4973833;28;20034;-81
2022/09/04 12:53:13;;;;;;;;;;;40.10;32.50;;;;;;4975724;28;20057;-80
2022/09/04 12:55:57;;;;;;;4.10;0.80;;;39.60;30.10;;;;;;4974063;28;19906;-78
2022/09/04 12:59:01;;;;;;;5.72;0.93;;;38.10;29.80;;;;;;4976365;28;20054;-78
2022/09/04 13:01:55;;;;;;;5.93;1.40;;;37.40;32.10;;;;;;4973427;28;20021;-78
2022/09/04 13:04:45;;;;;;;3.88;1.27;;;37.90;33.20;;;;;;5005801;28;20052;-78
2022/09/04 13:07:23;;;;;;;5.68;0.90;;;36.70;33.50;;;;;;4996948;28;20486;-78
2022/09/04 13:10:04;;;;;;;7.78;1.05;;;35.40;36.20;;;;;;4972931;28;20027;-78
2022/09/04 13:12:56;;;;;;;3.70;0.98;;;36.70;35.50;;;;;;4972506;28;20575;-78
2022/09/04 13:15:56;;;;;;;2.80;1.20;;;37.30;32.00;;;;;;4970582;28;20093;-78
2022/09/04 13:19:01;;;;;;;6.05;1.13;;;35.80;33.40;;;;;;4973018;28;20031;-77
2022/09/04 13:22:09;;;;;;;4.20;1.10;;;34.60;35.70;;;;;;4987239;23;20043;-74
2022/09/04 13:25:05;;;;;;;4.28;1.25;;;33.70;39.80;;;;;;4952089;28;20031;-74
2022/09/04 13:27:46;;;;;;;5.80;1.00;;;33.30;39.00;;;;;;4953867;28;20530;-74
2022/09/04 13:30:20;;;;;;;;;;;32.90;39.10;;;;;;4954196;28;20027;-74
2022/09/04 13:33:10;;;;;;;4.20;1.30;;;31.70;40.40;;;;;;4966430;28;19920;-74
2022/09/04 13:35:57;;;;;;;4.43;1.23;;;32.10;40.60;;;;;;4967353;28;20033;-74
2022/09/04 13:38:44;;;;;;;2.28;0.70;;;34.00;41.00;;;;;;4967792;28;20023;-74
2022/09/04 13:41:49;;;;;;;5.13;1.10;;;35.60;36.50;;;;;;4970656;28;20063;-76
2022/09/04 13:44:46;;;;;;;7.18;0.80;;;37.30;33.00;;;;;;4969301;28;20296;-76
2022/09/04 13:47:24;;;;;;;3.10;1.10;;;39.10;32.00;;;;;;4964875;28;20668;-74
2022/09/04 13:49:57;;;;;;;4.20;1.33;;;40.10;29.90;;;;;;4971600;28;20031;-75
2022/09/04 13:52:33;;;;;;;5.32;1.23;;;39.60;29.00;;;;;;4970924;28;20085;-75
2022/09/04 13:55:01;;;;;;;4.20;0.93;;;40.40;27.90;;;;;;4974740;28;20093;-75
2022/09/04 13:57:34;;;;;;;5.68;1.08;;;40.80;28.10;;;;;;4976447;28;20416;-74
2022/09/04 14:00:06;;;;;;;4.13;1.23;;;41.10;28.80;;;;;;4971073;28;20415;-75
2022/09/04 14:02:35;;;;;;;8.90;1.48;;;40.60;27.30;;;;;;4971021;28;20076;-74
2022/09/04 14:05:22;;;;;;;5.93;0.90;;;39.80;28.80;;;;;;4969031;28;20031;-75
2022/09/04 14:07:57;;;;;;;3.05;0.70;;;39.80;29.90;;;;;;4969960;28;20018;-74
2022/09/04 14:10:31;;;;;;;5.97;0.80;;;39.70;27.90;;;;;;4971034;28;20097;-75
2022/09/04 14:13:27;;;;;;;5.70;1.45;;;40.20;27.90;;;;;;4971294;28;20039;-74
2022/09/04 14:16:05;;;;;;;4.75;1.38;;;40.30;27.50;;;;;;4970073;28;20031;-75
2022/09/04 14:18:40;;;;;;;5.00;1.00;;;40.80;27.30;;;;;;4971398;28;20070;-75